Terminal Aerodrome Forecast
Issued by NWS

Home | Current Version | Previous Version | Graphics & Text | Print | Product List | Glossary Off
Versions: 1 2 3 4 5 6 7 8 9 10 11 12 13 14 15 16 17 18 19 20 21 22 23 24 25 26 27 28 29 30 31 32 33 34 35

000
FTUS43 KDDC 202343 AAB
TAFHYS
TAF AMD
KHYS 202343Z 2100/2124 12010KT 6SM -SHRA OVC080
      TEMPO 2103/2105 4SM -TSRA OVC040CB
     FM210500 11010KT P6SM OVC030
      TEMPO 2105/2107 4SM -TSRA OVC015CB
     FM210700 11011KT P6SM OVC015
      TEMPO 2107/2110 4SM -SHRA OVC008
     FM211000 10010KT P6SM -SHRA OVC015 PROB30 2112/2116 4SM -SHRA
      OVC008
     FM211700 08010KT P6SM OVC008 PROB30 2117/2120 4SM -SHRA OVC004=

USA.gov is the U.S. government's official web portal to all federal, state and local government web resources and services.